Evansville, Indiana
Current Conditions -  °F | °C
As of 10:54 AM on Wednesday 26 Nov 2014 (Local Time) from KEVV Reporting Station
Clear Clear  
Wind Chill: 35°   Ceiling: Unl
Heat Index: 35°   Visibility: 9mi
Dew Point: 27°   Wind: 3mph
Humidity: 72%   Direction: 160°SSE
Pressure: 30.14"   Gusts: NA
Location:  37.98°N, 87.56°W
Report Text: KEVV 261654Z 16003KT 9SM CLR 02/M03 A3014 RMK AO2 SLP209 T00171028
Loading
Personal Weather Stations






























Interactive Weather Map New forecast layout! Learn more

10-Day Weather Forecast

Advertisements
Track Severe Weather on mobile